sensor_id;sensor_type;location;lat;lon;timestamp;temperature;humidity
70676;DHT22;59069;52.242;20.900;2022-12-18T00:02:10;-3.78;83.72
70676;DHT22;59069;52.242;20.900;2022-12-18T00:04:35;-3.73;83.67
70676;DHT22;59069;52.242;20.900;2022-12-18T00:07:01;-3.68;83.54
70676;DHT22;59069;52.242;20.900;2022-12-18T00:09:26;-3.64;83.43
70676;DHT22;59069;52.242;20.900;2022-12-18T00:11:52;-3.61;83.34
70676;DHT22;59069;52.242;20.900;2022-12-18T00:14:17;-3.61;83.28
70676;DHT22;59069;52.242;20.900;2022-12-18T00:16:45;-3.61;83.26
70676;DHT22;59069;52.242;20.900;2022-12-18T00:19:12;-3.62;83.25
70676;DHT22;59069;52.242;20.900;2022-12-18T00:21:37;-3.61;83.37
70676;DHT22;59069;52.242;20.900;2022-12-18T00:24:03;-3.62;83.42
70676;DHT22;59069;52.242;20.900;2022-12-18T00:26:31;-3.61;83.41
70676;DHT22;59069;52.242;20.900;2022-12-18T00:29:04;-3.58;83.38
70676;DHT22;59069;52.242;20.900;2022-12-18T00:31:30;-3.58;83.26
70676;DHT22;59069;52.242;20.900;2022-12-18T00:33:56;-3.56;83.36
70676;DHT22;59069;52.242;20.900;2022-12-18T00:36:28;-3.54;83.37
70676;DHT22;59069;52.242;20.900;2022-12-18T00:38:55;-3.51;83.30
70676;DHT22;59069;52.242;20.900;2022-12-18T00:41:21;-3.48;83.37
70676;DHT22;59069;52.242;20.900;2022-12-18T00:44:06;-3.47;83.34
70676;DHT22;59069;52.242;20.900;2022-12-18T00:46:32;-3.45;83.30
70676;DHT22;59069;52.242;20.900;2022-12-18T00:48:58;-3.44;83.38
70676;DHT22;59069;52.242;20.900;2022-12-18T00:51:25;-3.40;83.32
70676;DHT22;59069;52.242;20.900;2022-12-18T00:53:52;-3.41;83.18
70676;DHT22;59069;52.242;20.900;2022-12-18T00:56:18;-3.40;83.08
70676;DHT22;59069;52.242;20.900;2022-12-18T00:58:43;-3.40;83.15
70676;DHT22;59069;52.242;20.900;2022-12-18T01:01:08;-3.41;83.17
70676;DHT22;59069;52.242;20.900;2022-12-18T01:03:34;-3.42;83.11
70676;DHT22;59069;52.242;20.900;2022-12-18T01:06:08;-3.40;82.91
70676;DHT22;59069;52.242;20.900;2022-12-18T01:08:34;-3.41;82.95
70676;DHT22;59069;52.242;20.900;2022-12-18T01:11:00;-3.41;82.85
70676;DHT22;59069;52.242;20.900;2022-12-18T01:13:26;-3.42;82.85
70676;DHT22;59069;52.242;20.900;2022-12-18T01:15:52;-3.45;82.71
70676;DHT22;59069;52.242;20.900;2022-12-18T01:18:17;-3.42;82.73
70676;DHT22;59069;52.242;20.900;2022-12-18T01:20:43;-3.42;82.77
70676;DHT22;59069;52.242;20.900;2022-12-18T01:23:09;-3.45;82.77
70676;DHT22;59069;52.242;20.900;2022-12-18T01:25:37;-3.41;82.72
70676;DHT22;59069;52.242;20.900;2022-12-18T01:28:03;-3.45;82.62
70676;DHT22;59069;52.242;20.900;2022-12-18T01:30:28;-3.45;82.68
70676;DHT22;59069;52.242;20.900;2022-12-18T01:32:54;-3.47;82.62
70676;DHT22;59069;52.242;20.900;2022-12-18T04:23:03;-3.78;81.35
70676;DHT22;59069;52.242;20.900;2022-12-18T04:25:29;-3.79;81.58
70676;DHT22;59069;52.242;20.900;2022-12-18T04:27:54;-3.83;81.72
70676;DHT22;59069;52.242;20.900;2022-12-18T04:30:20;-3.81;81.80
70676;DHT22;59069;52.242;20.900;2022-12-18T04:32:45;-3.82;81.84
70676;DHT22;59069;52.242;20.900;2022-12-18T04:35:10;-3.81;81.63
70676;DHT22;59069;52.242;20.900;2022-12-18T04:37:37;-3.81;81.58
70676;DHT22;59069;52.242;20.900;2022-12-18T04:40:04;-3.82;81.43
70676;DHT22;59069;52.242;20.900;2022-12-18T04:42:29;-3.87;81.23
70676;DHT22;59069;52.242;20.900;2022-12-18T04:44:55;-3.96;81.10
70676;DHT22;59069;52.242;20.900;2022-12-18T04:47:20;-4.03;80.98
70676;DHT22;59069;52.242;20.900;2022-12-18T04:49:46;-4.09;80.74
70676;DHT22;59069;52.242;20.900;2022-12-18T04:52:11;-4.16;80.88
70676;DHT22;59069;52.242;20.900;2022-12-18T04:54:37;-4.21;80.87
70676;DHT22;59069;52.242;20.900;2022-12-18T04:57:02;-4.31;80.97
70676;DHT22;59069;52.242;20.900;2022-12-18T04:59:28;-4.38;81.07
70676;DHT22;59069;52.242;20.900;2022-12-18T05:01:53;-4.44;81.42
70676;DHT22;59069;52.242;20.900;2022-12-18T05:04:19;-4.47;82.02
70676;DHT22;59069;52.242;20.900;2022-12-18T05:06:44;-4.50;82.42
70676;DHT22;59069;52.242;20.900;2022-12-18T05:09:10;-4.50;82.72
70676;DHT22;59069;52.242;20.900;2022-12-18T05:11:35;-4.50;83.02
70676;DHT22;59069;52.242;20.900;2022-12-18T05:14:01;-4.51;83.24
70676;DHT22;59069;52.242;20.900;2022-12-18T05:16:27;-4.47;83.45
70676;DHT22;59069;52.242;20.900;2022-12-18T05:18:52;-4.44;83.65
70676;DHT22;59069;52.242;20.900;2022-12-18T05:21:18;-4.41;83.72
70676;DHT22;59069;52.242;20.900;2022-12-18T05:23:43;-4.38;83.77
70676;DHT22;59069;52.242;20.900;2022-12-18T05:26:14;-4.38;83.74
70676;DHT22;59069;52.242;20.900;2022-12-18T05:28:39;-4.40;83.80
70676;DHT22;59069;52.242;20.900;2022-12-18T05:31:05;-4.38;83.96
70676;DHT22;59069;52.242;20.900;2022-12-18T05:33:32;-4.34;84.19
70676;DHT22;59069;52.242;20.900;2022-12-18T05:36:00;-4.36;84.32
70676;DHT22;59069;52.242;20.900;2022-12-18T05:38:27;-4.34;84.28
70676;DHT22;59069;52.242;20.900;2022-12-18T05:40:53;-4.30;84.17
70676;DHT22;59069;52.242;20.900;2022-12-18T05:43:20;-4.28;84.29
70676;DHT22;59069;52.242;20.900;2022-12-18T05:45:47;-4.28;84.39
70676;DHT22;59069;52.242;20.900;2022-12-18T05:48:13;-4.30;84.53
70676;DHT22;59069;52.242;20.900;2022-12-18T05:50:41;-4.26;84.70
70676;DHT22;59069;52.242;20.900;2022-12-18T05:53:07;-4.24;84.89
70676;DHT22;59069;52.242;20.900;2022-12-18T05:55:34;-4.23;84.96
70676;DHT22;59069;52.242;20.900;2022-12-18T05:58:01;-4.18;84.94
70676;DHT22;59069;52.242;20.900;2022-12-18T06:00:27;-4.17;84.97
70676;DHT22;59069;52.242;20.900;2022-12-18T06:02:52;-4.16;84.96
70676;DHT22;59069;52.242;20.900;2022-12-18T06:05:18;-4.13;84.98
70676;DHT22;59069;52.242;20.900;2022-12-18T06:07:43;-4.10;85.00
70676;DHT22;59069;52.242;20.900;2022-12-18T06:10:09;-4.10;84.99
70676;DHT22;59069;52.242;20.900;2022-12-18T06:12:34;-4.07;85.04
70676;DHT22;59069;52.242;20.900;2022-12-18T06:15:00;-4.03;85.05
70676;DHT22;59069;52.242;20.900;2022-12-18T06:17:32;-3.99;84.99
70676;DHT22;59069;52.242;20.900;2022-12-18T06:19:58;-4.02;85.07
70676;DHT22;59069;52.242;20.900;2022-12-18T06:22:24;-3.96;85.10
70676;DHT22;59069;52.242;20.900;2022-12-18T06:24:49;-3.95;85.05
70676;DHT22;59069;52.242;20.900;2022-12-18T06:27:15;-3.93;85.07
70676;DHT22;59069;52.242;20.900;2022-12-18T06:29:41;-3.92;85.00
70676;DHT22;59069;52.242;20.900;2022-12-18T06:32:06;-3.93;85.02
70676;DHT22;59069;52.242;20.900;2022-12-18T06:34:32;-3.93;84.90
70676;DHT22;59069;52.242;20.900;2022-12-18T06:36:58;-3.89;84.87
70676;DHT22;59069;52.242;20.900;2022-12-18T06:39:23;-3.89;84.93
70676;DHT22;59069;52.242;20.900;2022-12-18T06:41:49;-3.90;84.94
70676;DHT22;59069;52.242;20.900;2022-12-18T06:44:14;-3.87;84.91
70676;DHT22;59069;52.242;20.900;2022-12-18T06:46:39;-3.87;85.11
70676;DHT22;59069;52.242;20.900;2022-12-18T06:49:05;-3.85;85.08
70676;DHT22;59069;52.242;20.900;2022-12-18T06:51:30;-3.85;85.05
70676;DHT22;59069;52.242;20.900;2022-12-18T06:53:56;-3.85;85.10
70676;DHT22;59069;52.242;20.900;2022-12-18T06:56:21;-3.83;85.09
70676;DHT22;59069;52.242;20.900;2022-12-18T06:58:47;-3.79;85.18
70676;DHT22;59069;52.242;20.900;2022-12-18T07:01:13;-3.78;85.20
70676;DHT22;59069;52.242;20.900;2022-12-18T07:03:40;-3.75;85.12
70676;DHT22;59069;52.242;20.900;2022-12-18T07:06:05;-3.71;85.11
70676;DHT22;59069;52.242;20.900;2022-12-18T07:08:31;-3.66;85.13
70676;DHT22;59069;52.242;20.900;2022-12-18T07:10:57;-3.61;85.10
70676;DHT22;59069;52.242;20.900;2022-12-18T07:13:23;-3.56;85.03
70676;DHT22;59069;52.242;20.900;2022-12-18T07:15:48;-3.54;85.11
70676;DHT22;59069;52.242;20.900;2022-12-18T07:18:14;-3.54;85.04
70676;DHT22;59069;52.242;20.900;2022-12-18T07:20:39;-3.50;85.05
70676;DHT22;59069;52.242;20.900;2022-12-18T07:23:05;-3.47;84.93
70676;DHT22;59069;52.242;20.900;2022-12-18T07:25:37;-3.41;84.83
70676;DHT22;59069;52.242;20.900;2022-12-18T07:28:03;-3.38;84.80
70676;DHT22;59069;52.242;20.900;2022-12-18T07:30:29;-3.34;84.78
70676;DHT22;59069;52.242;20.900;2022-12-18T07:32:54;-3.32;84.55
70676;DHT22;59069;52.242;20.900;2022-12-18T07:35:19;-3.35;84.49
70676;DHT22;59069;52.242;20.900;2022-12-18T07:37:45;-3.32;84.48
70676;DHT22;59069;52.242;20.900;2022-12-18T07:40:11;-3.34;84.56
70676;DHT22;59069;52.242;20.900;2022-12-18T07:42:36;-3.31;84.51
70676;DHT22;59069;52.242;20.900;2022-12-18T07:45:03;-3.30;84.26
70676;DHT22;59069;52.242;20.900;2022-12-18T07:47:34;-3.31;84.15
70676;DHT22;59069;52.242;20.900;2022-12-18T07:50:02;-3.31;83.90
70676;DHT22;59069;52.242;20.900;2022-12-18T07:52:27;-3.34;83.99
70676;DHT22;59069;52.242;20.900;2022-12-18T07:54:52;-3.31;84.04
70676;DHT22;59069;52.242;20.900;2022-12-18T07:57:18;-3.28;84.13
70676;DHT22;59069;52.242;20.900;2022-12-18T07:59:43;-3.28;83.88
70676;DHT22;59069;52.242;20.900;2022-12-18T08:02:09;-3.30;83.73
70676;DHT22;59069;52.242;20.900;2022-12-18T08:04:34;-3.34;83.42
70676;DHT22;59069;52.242;20.900;2022-12-18T08:07:00;-3.35;83.44
70676;DHT22;59069;52.242;20.900;2022-12-18T08:09:25;-3.38;83.44
70676;DHT22;59069;52.242;20.900;2022-12-18T08:11:51;-3.38;83.50
70676;DHT22;59069;52.242;20.900;2022-12-18T08:14:16;-3.41;83.53
70676;DHT22;59069;52.242;20.900;2022-12-18T08:16:42;-3.42;83.49
70676;DHT22;59069;52.242;20.900;2022-12-18T08:19:07;-3.48;83.68
70676;DHT22;59069;52.242;20.900;2022-12-18T08:21:32;-3.47;83.79
70676;DHT22;59069;52.242;20.900;2022-12-18T08:24:00;-3.47;83.48
70676;DHT22;59069;52.242;20.900;2022-12-18T08:26:28;-3.51;83.47
70676;DHT22;59069;52.242;20.900;2022-12-18T08:28:58;-3.52;83.68
70676;DHT22;59069;52.242;20.900;2022-12-18T08:31:25;-3.50;83.89
70676;DHT22;59069;52.242;20.900;2022-12-18T08:33:52;-3.45;84.05
70676;DHT22;59069;52.242;20.900;2022-12-18T08:36:18;-3.44;84.08
70676;DHT22;59069;52.242;20.900;2022-12-18T08:38:44;-3.38;84.25
70676;DHT22;59069;52.242;20.900;2022-12-18T08:41:12;-3.32;84.47
70676;DHT22;59069;52.242;20.900;2022-12-18T08:43:38;-3.30;84.26
70676;DHT22;59069;52.242;20.900;2022-12-18T08:46:24;-3.28;83.87
70676;DHT22;59069;52.242;20.900;2022-12-18T08:48:53;-3.25;83.67
70676;DHT22;59069;52.242;20.900;2022-12-18T08:51:19;-3.25;83.75
70676;DHT22;59069;52.242;20.900;2022-12-18T08:53:45;-3.20;83.95
70676;DHT22;59069;52.242;20.900;2022-12-18T08:56:12;-3.11;84.00
70676;DHT22;59069;52.242;20.900;2022-12-18T08:58:38;-3.07;83.67
70676;DHT22;59069;52.242;20.900;2022-12-18T09:01:05;-3.04;83.38
70676;DHT22;59069;52.242;20.900;2022-12-18T09:03:31;-3.04;83.16
70676;DHT22;59069;52.242;20.900;2022-12-18T09:05:57;-3.04;83.19
70676;DHT22;59069;52.242;20.900;2022-12-18T09:08:23;-3.03;83.15
70676;DHT22;59069;52.242;20.900;2022-12-18T09:10:49;-3.00;83.15
70676;DHT22;59069;52.242;20.900;2022-12-18T09:13:16;-2.99;82.81
70676;DHT22;59069;52.242;20.900;2022-12-18T09:18:09;-3.03;82.25
70676;DHT22;59069;52.242;20.900;2022-12-18T09:20:35;-3.03;82.23
70676;DHT22;59069;52.242;20.900;2022-12-18T09:23:01;-3.01;82.55
70676;DHT22;59069;52.242;20.900;2022-12-18T09:25:29;-2.99;82.54
70676;DHT22;59069;52.242;20.900;2022-12-18T09:28:01;-2.94;82.40
70676;DHT22;59069;52.242;20.900;2022-12-18T09:30:27;-3.01;82.24
70676;DHT22;59069;52.242;20.900;2022-12-18T09:32:52;-2.99;82.40
70676;DHT22;59069;52.242;20.900;2022-12-18T09:35:18;-2.91;82.66
70676;DHT22;59069;52.242;20.900;2022-12-18T09:37:43;-2.87;82.49
70676;DHT22;59069;52.242;20.900;2022-12-18T09:40:18;-2.90;81.80
70676;DHT22;59069;52.242;20.900;2022-12-18T09:42:48;-2.91;81.71
70676;DHT22;59069;52.242;20.900;2022-12-18T09:45:16;-2.89;81.63
70676;DHT22;59069;52.242;20.900;2022-12-18T09:47:43;-2.93;81.58
70676;DHT22;59069;52.242;20.900;2022-12-18T09:50:24;-2.93;81.73
70676;DHT22;59069;52.242;20.900;2022-12-18T09:52:55;-2.90;82.05
70676;DHT22;59069;52.242;20.900;2022-12-18T09:55:29;-2.83;82.03
70676;DHT22;59069;52.242;20.900;2022-12-18T09:58:02;-2.75;81.66
70676;DHT22;59069;52.242;20.900;2022-12-18T10:00:31;-2.70;81.55
70676;DHT22;59069;52.242;20.900;2022-12-18T10:03:01;-2.65;81.80
70676;DHT22;59069;52.242;20.900;2022-12-18T10:05:42;-2.60;81.77
70676;DHT22;59069;52.242;20.900;2022-12-18T10:10:57;-2.66;80.37
70676;DHT22;59069;52.242;20.900;2022-12-18T10:13:37;-2.75;80.44
70676;DHT22;59069;52.242;20.900;2022-12-18T10:16:14;-2.83;80.74
70676;DHT22;59069;52.242;20.900;2022-12-18T10:21:18;-2.80;81.35
70676;DHT22;59069;52.242;20.900;2022-12-18T10:26:40;-2.75;81.29
70676;DHT22;59069;52.242;20.900;2022-12-18T10:29:13;-2.65;81.54
70676;DHT22;59069;52.242;20.900;2022-12-18T10:31:38;-2.58;81.32
70676;DHT22;59069;52.242;20.900;2022-12-18T10:34:04;-2.55;81.14
70676;DHT22;59069;52.242;20.900;2022-12-18T10:36:29;-2.52;81.36
70676;DHT22;59069;52.242;20.900;2022-12-18T10:39:18;-2.39;81.55
70676;DHT22;59069;52.242;20.900;2022-12-18T10:41:44;-2.31;81.28
70676;DHT22;59069;52.242;20.900;2022-12-18T10:44:14;-2.21;81.16
70676;DHT22;59069;52.242;20.900;2022-12-18T10:46:41;-2.14;80.57
70676;DHT22;59069;52.242;20.900;2022-12-18T10:49:21;-2.07;80.53
70676;DHT22;59069;52.242;20.900;2022-12-18T10:51:48;-2.02;80.58
70676;DHT22;59069;52.242;20.900;2022-12-18T10:54:17;-1.91;80.46
70676;DHT22;59069;52.242;20.900;2022-12-18T10:56:43;-1.90;79.96
70676;DHT22;59069;52.242;20.900;2022-12-18T10:59:11;-1.93;80.00
70676;DHT22;59069;52.242;20.900;2022-12-18T11:01:57;-1.90;79.84
70676;DHT22;59069;52.242;20.900;2022-12-18T11:04:26;-1.83;79.56
70676;DHT22;59069;52.242;20.900;2022-12-18T11:07:01;-1.81;79.43
70676;DHT22;59069;52.242;20.900;2022-12-18T11:09:37;-1.78;79.15
70676;DHT22;59069;52.242;20.900;2022-12-18T11:12:16;-1.74;78.90
70676;DHT22;59069;52.242;20.900;2022-12-18T11:14:46;-1.74;79.07
70676;DHT22;59069;52.242;20.900;2022-12-18T11:17:21;-1.69;79.37
70676;DHT22;59069;52.242;20.900;2022-12-18T11:19:58;-1.62;79.22
70676;DHT22;59069;52.242;20.900;2022-12-18T11:22:25;-1.57;78.72
70676;DHT22;59069;52.242;20.900;2022-12-18T11:24:59;-1.56;78.32
70676;DHT22;59069;52.242;20.900;2022-12-18T11:27:26;-1.60;78.09
70676;DHT22;59069;52.242;20.900;2022-12-18T11:29:52;-1.56;78.21
70676;DHT22;59069;52.242;20.900;2022-12-18T11:34:59;-1.45;78.21
70676;DHT22;59069;52.242;20.900;2022-12-18T11:37:26;-1.36;78.19
70676;DHT22;59069;52.242;20.900;2022-12-18T11:40:03;-1.32;78.10
70676;DHT22;59069;52.242;20.900;2022-12-18T11:42:34;-1.32;77.76
70676;DHT22;59069;52.242;20.900;2022-12-18T11:45:11;-1.28;77.56
70676;DHT22;59069;52.242;20.900;2022-12-18T11:47:44;-1.26;77.41
70676;DHT22;59069;52.242;20.900;2022-12-18T11:50:18;-1.20;77.27
70676;DHT22;59069;52.242;20.900;2022-12-18T11:52:44;-1.15;77.09
70676;DHT22;59069;52.242;20.900;2022-12-18T11:55:22;-1.18;77.11
70676;DHT22;59069;52.242;20.900;2022-12-18T12:00:24;-1.12;76.52
70676;DHT22;59069;52.242;20.900;2022-12-18T12:03:08;-1.13;76.54
70676;DHT22;59069;52.242;20.900;2022-12-18T12:06:01;-1.05;76.37
70676;DHT22;59069;52.242;20.900;2022-12-18T12:22:22;-1.02;74.76
70676;DHT22;59069;52.242;20.900;2022-12-18T12:38:41;-1.34;74.94
70676;DHT22;59069;52.242;20.900;2022-12-18T12:41:14;-1.39;74.66
70676;DHT22;59069;52.242;20.900;2022-12-18T12:44:03;-1.46;74.85
70676;DHT22;59069;52.242;20.900;2022-12-18T12:46:31;-1.50;75.05
70676;DHT22;59069;52.242;20.900;2022-12-18T12:49:02;-1.52;75.10
70676;DHT22;59069;52.242;20.900;2022-12-18T12:51:32;-1.57;75.20
70676;DHT22;59069;52.242;20.900;2022-12-18T12:54:00;-1.63;75.30
70676;DHT22;59069;52.242;20.900;2022-12-18T12:56:40;-1.64;75.54
70676;DHT22;59069;52.242;20.900;2022-12-18T13:02:28;-1.77;75.87
70676;DHT22;59069;52.242;20.900;2022-12-18T13:07:41;-1.87;76.26
70676;DHT22;59069;52.242;20.900;2022-12-18T13:15:37;-2.07;76.55
70676;DHT22;59069;52.242;20.900;2022-12-18T13:20:40;-2.17;76.92
70676;DHT22;59069;52.242;20.900;2022-12-18T13:25:55;-2.29;77.47
70676;DHT22;59069;52.242;20.900;2022-12-18T13:30:59;-2.42;77.46
70676;DHT22;59069;52.242;20.900;2022-12-18T13:36:11;-2.55;77.61
70676;DHT22;59069;52.242;20.900;2022-12-18T13:38:38;-2.63;78.12
70676;DHT22;59069;52.242;20.900;2022-12-18T13:41:23;-2.66;78.47
70676;DHT22;59069;52.242;20.900;2022-12-18T13:43:50;-2.70;78.73
70676;DHT22;59069;52.242;20.900;2022-12-18T13:51:35;-2.80;79.35
70676;DHT22;59069;52.242;20.900;2022-12-18T13:54:26;-2.86;79.48
70676;DHT22;59069;52.242;20.900;2022-12-18T13:56:54;-2.86;79.51
70676;DHT22;59069;52.242;20.900;2022-12-18T13:59:22;-2.86;79.68
70676;DHT22;59069;52.242;20.900;2022-12-18T14:04:34;-2.90;79.83
70676;DHT22;59069;52.242;20.900;2022-12-18T14:07:32;-2.89;80.06
70676;DHT22;59069;52.242;20.900;2022-12-18T14:09:59;-2.89;80.02
70676;DHT22;59069;52.242;20.900;2022-12-18T14:12:31;-2.93;80.08
70676;DHT22;59069;52.242;20.900;2022-12-18T14:17:58;-2.99;80.42
70676;DHT22;59069;52.242;20.900;2022-12-18T14:20:26;-2.99;80.54
70676;DHT22;59069;52.242;20.900;2022-12-18T14:22:52;-3.01;80.54
70676;DHT22;59069;52.242;20.900;2022-12-18T14:25:22;-3.04;80.63
70676;DHT22;59069;52.242;20.900;2022-12-18T14:30:36;-3.08;81.21
70676;DHT22;59069;52.242;20.900;2022-12-18T14:35:35;-3.08;81.39
70676;DHT22;59069;52.242;20.900;2022-12-18T14:40:42;-3.14;81.47
70676;DHT22;59069;52.242;20.900;2022-12-18T14:43:11;-3.07;81.59
70676;DHT22;59069;52.242;20.900;2022-12-18T14:45:38;-3.08;81.63
70676;DHT22;59069;52.242;20.900;2022-12-18T14:48:25;-3.08;81.69
70676;DHT22;59069;52.242;20.900;2022-12-18T14:51:02;-3.05;81.72
70676;DHT22;59069;52.242;20.900;2022-12-18T14:53:41;-3.05;81.72
70676;DHT22;59069;52.242;20.900;2022-12-18T14:58:57;-2.99;81.69
70676;DHT22;59069;52.242;20.900;2022-12-18T15:03:55;-2.93;81.59
70676;DHT22;59069;52.242;20.900;2022-12-18T15:06:31;-2.93;81.53
70676;DHT22;59069;52.242;20.900;2022-12-18T15:08:59;-2.89;81.35
70676;DHT22;59069;52.242;20.900;2022-12-18T15:17:22;-2.84;81.58
70676;DHT22;59069;52.242;20.900;2022-12-18T15:19:51;-2.80;81.52
70676;DHT22;59069;52.242;20.900;2022-12-18T15:22:21;-2.83;81.32
70676;DHT22;59069;52.242;20.900;2022-12-18T15:24:48;-2.84;81.40
70676;DHT22;59069;52.242;20.900;2022-12-18T15:27:29;-2.86;81.43
70676;DHT22;59069;52.242;20.900;2022-12-18T15:30:03;-2.83;81.51
70676;DHT22;59069;52.242;20.900;2022-12-18T15:32:40;-2.84;81.53
70676;DHT22;59069;52.242;20.900;2022-12-18T15:35:20;-2.84;81.48
70676;DHT22;59069;52.242;20.900;2022-12-18T15:37:46;-2.90;81.45
70676;DHT22;59069;52.242;20.900;2022-12-18T15:40:20;-2.90;81.59
70676;DHT22;59069;52.242;20.900;2022-12-18T15:42:47;-2.90;81.58
70676;DHT22;59069;52.242;20.900;2022-12-18T15:45:32;-2.84;81.39
70676;DHT22;59069;52.242;20.900;2022-12-18T15:47:57;-2.80;81.36
70676;DHT22;59069;52.242;20.900;2022-12-18T15:50:23;-2.84;81.37
70676;DHT22;59069;52.242;20.900;2022-12-18T15:52:51;-2.87;81.28
70676;DHT22;59069;52.242;20.900;2022-12-18T15:55:20;-2.90;81.24
70676;DHT22;59069;52.242;20.900;2022-12-18T15:58:06;-2.91;81.31
70676;DHT22;59069;52.242;20.900;2022-12-18T16:00:34;-2.91;81.43
70676;DHT22;59069;52.242;20.900;2022-12-18T16:03:00;-2.93;81.48
70676;DHT22;59069;52.242;20.900;2022-12-18T16:05:27;-2.89;81.47
70676;DHT22;59069;52.242;20.900;2022-12-18T16:07:53;-2.86;81.39
70676;DHT22;59069;52.242;20.900;2022-12-18T16:10:19;-2.86;81.28
70676;DHT22;59069;52.242;20.900;2022-12-18T16:12:45;-2.87;81.38
70676;DHT22;59069;52.242;20.900;2022-12-18T16:15:13;-2.90;81.57
70676;DHT22;59069;52.242;20.900;2022-12-18T16:17:39;-2.89;81.61
70676;DHT22;59069;52.242;20.900;2022-12-18T16:20:08;-2.89;81.47
70676;DHT22;59069;52.242;20.900;2022-12-18T16:22:36;-2.91;81.43
70676;DHT22;59069;52.242;20.900;2022-12-18T16:25:02;-2.97;81.47
70676;DHT22;59069;52.242;20.900;2022-12-18T16:27:28;-3.01;81.62
70676;DHT22;59069;52.242;20.900;2022-12-18T16:29:53;-3.00;81.46
70676;DHT22;59069;52.242;20.900;2022-12-18T16:32:20;-3.00;81.47
70676;DHT22;59069;52.242;20.900;2022-12-18T16:34:47;-3.01;81.51
70676;DHT22;59069;52.242;20.900;2022-12-18T16:37:14;-2.99;81.51
70676;DHT22;59069;52.242;20.900;2022-12-18T16:39:40;-2.94;81.47
70676;DHT22;59069;52.242;20.900;2022-12-18T16:42:11;-2.97;81.64
70676;DHT22;59069;52.242;20.900;2022-12-18T16:44:39;-2.99;81.66
70676;DHT22;59069;52.242;20.900;2022-12-18T16:47:05;-3.04;81.50
70676;DHT22;59069;52.242;20.900;2022-12-18T16:49:31;-3.15;81.50
70676;DHT22;59069;52.242;20.900;2022-12-18T16:51:56;-3.23;81.70
70676;DHT22;59069;52.242;20.900;2022-12-18T16:54:22;-3.18;81.67
70676;DHT22;59069;52.242;20.900;2022-12-18T16:56:47;-3.18;81.76
70676;DHT22;59069;52.242;20.900;2022-12-18T16:59:15;-3.18;81.88
70676;DHT22;59069;52.242;20.900;2022-12-18T17:01:40;-3.20;81.84
70676;DHT22;59069;52.242;20.900;2022-12-18T17:04:08;-3.23;81.69
70676;DHT22;59069;52.242;20.900;2022-12-18T17:06:39;-3.23;81.68
70676;DHT22;59069;52.242;20.900;2022-12-18T17:09:07;-3.27;81.85
70676;DHT22;59069;52.242;20.900;2022-12-18T17:11:34;-3.23;82.10
70676;DHT22;59069;52.242;20.900;2022-12-18T17:14:12;-3.20;82.21
70676;DHT22;59069;52.242;20.900;2022-12-18T17:16:38;-3.24;82.00
70676;DHT22;59069;52.242;20.900;2022-12-18T17:19:04;-3.25;82.03
70676;DHT22;59069;52.242;20.900;2022-12-18T17:21:29;-3.25;82.15
70676;DHT22;59069;52.242;20.900;2022-12-18T17:23:55;-3.28;81.80
70676;DHT22;59069;52.242;20.900;2022-12-18T17:26:23;-3.23;81.81
70676;DHT22;59069;52.242;20.900;2022-12-18T17:28:48;-3.27;81.70
70676;DHT22;59069;52.242;20.900;2022-12-18T17:31:17;-3.32;81.76
70676;DHT22;59069;52.242;20.900;2022-12-18T17:33:43;-3.34;81.91
70676;DHT22;59069;52.242;20.900;2022-12-18T17:36:10;-3.37;81.86
70676;DHT22;59069;52.242;20.900;2022-12-18T17:38:36;-3.37;81.81
70676;DHT22;59069;52.242;20.900;2022-12-18T17:41:03;-3.41;81.95
70676;DHT22;59069;52.242;20.900;2022-12-18T17:43:28;-3.42;82.17
70676;DHT22;59069;52.242;20.900;2022-12-18T17:45:54;-3.38;82.36
70676;DHT22;59069;52.242;20.900;2022-12-18T17:48:19;-3.40;82.23
70676;DHT22;59069;52.242;20.900;2022-12-18T17:50:45;-3.41;81.83
70676;DHT22;59069;52.242;20.900;2022-12-18T17:53:10;-3.52;81.66
70676;DHT22;59069;52.242;20.900;2022-12-18T17:55:36;-3.58;82.04
70676;DHT22;59069;52.242;20.900;2022-12-18T17:58:01;-3.58;82.23
70676;DHT22;59069;52.242;20.900;2022-12-18T18:00:27;-3.56;82.25
70676;DHT22;59069;52.242;20.900;2022-12-18T18:02:53;-3.58;82.15
70676;DHT22;59069;52.242;20.900;2022-12-18T18:05:19;-3.65;82.14
70676;DHT22;59069;52.242;20.900;2022-12-18T18:07:44;-3.68;82.42
70676;DHT22;59069;52.242;20.900;2022-12-18T18:10:10;-3.71;82.62
70676;DHT22;59069;52.242;20.900;2022-12-18T18:12:35;-3.71;82.75
70676;DHT22;59069;52.242;20.900;2022-12-18T18:15:19;-3.66;82.66
70676;DHT22;59069;52.242;20.900;2022-12-18T18:17:45;-3.68;82.77
70676;DHT22;59069;52.242;20.900;2022-12-18T18:20:11;-3.76;82.40
70676;DHT22;59069;52.242;20.900;2022-12-18T18:22:36;-3.86;82.52
70676;DHT22;59069;52.242;20.900;2022-12-18T18:25:02;-3.95;82.74
70676;DHT22;59069;52.242;20.900;2022-12-18T18:27:28;-3.97;82.97
70676;DHT22;59069;52.242;20.900;2022-12-18T18:29:55;-4.03;83.00
70676;DHT22;59069;52.242;20.900;2022-12-18T18:32:20;-4.05;83.08
70676;DHT22;59069;52.242;20.900;2022-12-18T18:34:46;-4.09;83.16
70676;DHT22;59069;52.242;20.900;2022-12-18T18:37:11;-4.11;83.07
70676;DHT22;59069;52.242;20.900;2022-12-18T18:39:37;-4.11;83.18
70676;DHT22;59069;52.242;20.900;2022-12-18T18:42:02;-4.06;83.37
70676;DHT22;59069;52.242;20.900;2022-12-18T18:44:28;-4.07;83.01
70676;DHT22;59069;52.242;20.900;2022-12-18T18:46:55;-4.11;83.12
70676;DHT22;59069;52.242;20.900;2022-12-18T18:49:22;-4.16;83.19
70676;DHT22;59069;52.242;20.900;2022-12-18T18:51:49;-4.17;83.44
70676;DHT22;59069;52.242;20.900;2022-12-18T18:54:14;-4.20;83.63
70676;DHT22;59069;52.242;20.900;2022-12-18T18:56:40;-4.23;83.85
70676;DHT22;59069;52.242;20.900;2022-12-18T18:59:05;-4.23;83.97
70676;DHT22;59069;52.242;20.900;2022-12-18T19:01:31;-4.21;84.04
70676;DHT22;59069;52.242;20.900;2022-12-18T19:03:57;-4.21;84.10
70676;DHT22;59069;52.242;20.900;2022-12-18T19:06:25;-4.13;84.05
70676;DHT22;59069;52.242;20.900;2022-12-18T19:08:52;-4.13;83.91
70676;DHT22;59069;52.242;20.900;2022-12-18T19:11:18;-4.11;83.86
70676;DHT22;59069;52.242;20.900;2022-12-18T19:14:04;-4.13;83.86
70676;DHT22;59069;52.242;20.900;2022-12-18T19:16:31;-4.16;83.63
70676;DHT22;59069;52.242;20.900;2022-12-18T19:18:56;-4.24;83.80
70676;DHT22;59069;52.242;20.900;2022-12-18T19:21:22;-4.21;83.98
70676;DHT22;59069;52.242;20.900;2022-12-18T19:23:48;-4.30;83.84
70676;DHT22;59069;52.242;20.900;2022-12-18T19:26:15;-4.37;84.07
70676;DHT22;59069;52.242;20.900;2022-12-18T19:28:40;-4.38;84.23
70676;DHT22;59069;52.242;20.900;2022-12-18T19:31:08;-4.41;84.36
70676;DHT22;59069;52.242;20.900;2022-12-18T19:33:37;-4.44;84.41
70676;DHT22;59069;52.242;20.900;2022-12-18T19:36:25;-4.47;84.51
70676;DHT22;59069;52.242;20.900;2022-12-18T19:38:53;-4.48;84.39
70676;DHT22;59069;52.242;20.900;2022-12-18T19:41:19;-4.53;84.41
70676;DHT22;59069;52.242;20.900;2022-12-18T19:43:45;-4.60;84.36
70676;DHT22;59069;52.242;20.900;2022-12-18T19:46:16;-4.64;84.47